sensor_id;sensor_type;location;lat;lon;timestamp;P1;P2;P0
73631;PMS5003;61924;53.268;-2.458;2023-03-04T00:00:11;17;15;
73631;PMS5003;61924;53.268;-2.458;2023-03-04T00:02:36;16;15;
73631;PMS5003;61924;53.268;-2.458;2023-03-04T00:05:01;16;13;
73631;PMS5003;61924;53.268;-2.458;2023-03-04T00:07:26;18;16;
73631;PMS5003;61924;53.268;-2.458;2023-03-04T00:09:52;16;16;
73631;PMS5003;61924;53.268;-2.458;2023-03-04T00:12:17;18;15;
73631;PMS5003;61924;53.268;-2.458;2023-03-04T00:14:42;15;14;
73631;PMS5003;61924;53.268;-2.458;2023-03-04T00:17:07;15;14;
73631;PMS5003;61924;53.268;-2.458;2023-03-04T00:19:33;17;15;
73631;PMS5003;61924;53.268;-2.458;2023-03-04T00:21:58;14;12;
73631;PMS5003;61924;53.268;-2.458;2023-03-04T00:24:23;17;16;
73631;PMS5003;61924;53.268;-2.458;2023-03-04T00:26:49;15;15;
73631;PMS5003;61924;53.268;-2.458;2023-03-04T00:29:14;18;14;
73631;PMS5003;61924;53.268;-2.458;2023-03-04T00:31:40;13;13;
73631;PMS5003;61924;53.268;-2.458;2023-03-04T00:34:05;13;10;
73631;PMS5003;61924;53.268;-2.458;2023-03-04T00:36:31;12;11;
73631;PMS5003;61924;53.268;-2.458;2023-03-04T00:38:57;14;14;
73631;PMS5003;61924;53.268;-2.458;2023-03-04T00:41:22;11;11;
73631;PMS5003;61924;53.268;-2.458;2023-03-04T00:43:47;12;12;
73631;PMS5003;61924;53.268;-2.458;2023-03-04T00:46:13;13;12;
73631;PMS5003;61924;53.268;-2.458;2023-03-04T00:48:38;11;10;
73631;PMS5003;61924;53.268;-2.458;2023-03-04T00:51:03;13;13;
73631;PMS5003;61924;53.268;-2.458;2023-03-04T00:53:29;14;13;
73631;PMS5003;61924;53.268;-2.458;2023-03-04T00:55:55;10;10;
73631;PMS5003;61924;53.268;-2.458;2023-03-04T00:58:20;11;10;
73631;PMS5003;61924;53.268;-2.458;2023-03-04T01:00:46;10;10;
73631;PMS5003;61924;53.268;-2.458;2023-03-04T01:03:11;14;14;
73631;PMS5003;61924;53.268;-2.458;2023-03-04T01:05:37;17;14;
73631;PMS5003;61924;53.268;-2.458;2023-03-04T01:08:02;12;11;
73631;PMS5003;61924;53.268;-2.458;2023-03-04T01:10:27;13;10;
73631;PMS5003;61924;53.268;-2.458;2023-03-04T01:12:52;13;13;
73631;PMS5003;61924;53.268;-2.458;2023-03-04T01:15:18;12;12;
73631;PMS5003;61924;53.268;-2.458;2023-03-04T01:17:43;11;11;
73631;PMS5003;61924;53.268;-2.458;2023-03-04T01:20:09;12;11;
73631;PMS5003;61924;53.268;-2.458;2023-03-04T01:22:34;12;9;
73631;PMS5003;61924;53.268;-2.458;2023-03-04T01:24:59;12;12;
73631;PMS5003;61924;53.268;-2.458;2023-03-04T01:27:24;13;13;
73631;PMS5003;61924;53.268;-2.458;2023-03-04T01:29:50;8;8;
73631;PMS5003;61924;53.268;-2.458;2023-03-04T01:32:15;10;9;
73631;PMS5003;61924;53.268;-2.458;2023-03-04T01:34:40;14;12;
73631;PMS5003;61924;53.268;-2.458;2023-03-04T01:37:06;11;10;
73631;PMS5003;61924;53.268;-2.458;2023-03-04T01:39:32;10;10;
73631;PMS5003;61924;53.268;-2.458;2023-03-04T01:41:58;11;10;
73631;PMS5003;61924;53.268;-2.458;2023-03-04T01:44:23;10;10;
73631;PMS5003;61924;53.268;-2.458;2023-03-04T01:46:49;9;9;
73631;PMS5003;61924;53.268;-2.458;2023-03-04T01:49:13;9;9;
73631;PMS5003;61924;53.268;-2.458;2023-03-04T01:51:39;9;9;
73631;PMS5003;61924;53.268;-2.458;2023-03-04T01:54:05;8;8;
73631;PMS5003;61924;53.268;-2.458;2023-03-04T01:56:33;7;6;
73631;PMS5003;61924;53.268;-2.458;2023-03-04T01:59:12;8;7;
73631;PMS5003;61924;53.268;-2.458;2023-03-04T02:01:21;9;9;
73631;PMS5003;61924;53.268;-2.458;2023-03-04T02:03:46;9;9;
73631;PMS5003;61924;53.268;-2.458;2023-03-04T02:06:12;10;9;
73631;PMS5003;61924;53.268;-2.458;2023-03-04T02:08:37;8;7;
73631;PMS5003;61924;53.268;-2.458;2023-03-04T02:11:03;13;11;
73631;PMS5003;61924;53.268;-2.458;2023-03-04T02:13:29;7;7;
73631;PMS5003;61924;53.268;-2.458;2023-03-04T02:15:54;12;11;
73631;PMS5003;61924;53.268;-2.458;2023-03-04T02:18:20;10;10;
73631;PMS5003;61924;53.268;-2.458;2023-03-04T02:20:48;8;8;
73631;PMS5003;61924;53.268;-2.458;2023-03-04T02:23:12;7;7;
73631;PMS5003;61924;53.268;-2.458;2023-03-04T02:25:37;8;8;
73631;PMS5003;61924;53.268;-2.458;2023-03-04T02:28:01;8;8;
73631;PMS5003;61924;53.268;-2.458;2023-03-04T02:30:26;11;10;
73631;PMS5003;61924;53.268;-2.458;2023-03-04T02:32:51;4;4;
73631;PMS5003;61924;53.268;-2.458;2023-03-04T02:35:17;9;9;
73631;PMS5003;61924;53.268;-2.458;2023-03-04T02:37:42;5;5;
73631;PMS5003;61924;53.268;-2.458;2023-03-04T02:40:08;7;7;
73631;PMS5003;61924;53.268;-2.458;2023-03-04T02:42:33;7;7;
73631;PMS5003;61924;53.268;-2.458;2023-03-04T02:44:59;6;5;
73631;PMS5003;61924;53.268;-2.458;2023-03-04T02:47:23;7;6;
73631;PMS5003;61924;53.268;-2.458;2023-03-04T02:49:49;11;8;
73631;PMS5003;61924;53.268;-2.458;2023-03-04T02:52:16;7;7;
73631;PMS5003;61924;53.268;-2.458;2023-03-04T02:54:40;5;4;
73631;PMS5003;61924;53.268;-2.458;2023-03-04T02:57:06;4;4;
73631;PMS5003;61924;53.268;-2.458;2023-03-04T02:59:30;3;3;
73631;PMS5003;61924;53.268;-2.458;2023-03-04T03:01:56;3;2;
73631;PMS5003;61924;53.268;-2.458;2023-03-04T03:04:21;3;3;
73631;PMS5003;61924;53.268;-2.458;2023-03-04T03:06:47;4;4;
73631;PMS5003;61924;53.268;-2.458;2023-03-04T03:09:12;7;6;
73631;PMS5003;61924;53.268;-2.458;2023-03-04T03:11:37;4;4;
73631;PMS5003;61924;53.268;-2.458;2023-03-04T03:14:03;3;2;
73631;PMS5003;61924;53.268;-2.458;2023-03-04T03:16:29;2;2;
73631;PMS5003;61924;53.268;-2.458;2023-03-04T03:18:54;3;3;
73631;PMS5003;61924;53.268;-2.458;2023-03-04T03:21:20;4;4;
73631;PMS5003;61924;53.268;-2.458;2023-03-04T03:23:45;4;4;
73631;PMS5003;61924;53.268;-2.458;2023-03-04T03:26:10;4;4;
73631;PMS5003;61924;53.268;-2.458;2023-03-04T03:28:36;3;3;
73631;PMS5003;61924;53.268;-2.458;2023-03-04T03:31:01;3;3;
73631;PMS5003;61924;53.268;-2.458;2023-03-04T03:33:26;7;7;
73631;PMS5003;61924;53.268;-2.458;2023-03-04T03:35:51;3;3;
73631;PMS5003;61924;53.268;-2.458;2023-03-04T03:38:17;5;4;
73631;PMS5003;61924;53.268;-2.458;2023-03-04T03:40:42;2;2;
73631;PMS5003;61924;53.268;-2.458;2023-03-04T03:43:07;3;3;
73631;PMS5003;61924;53.268;-2.458;2023-03-04T03:45:33;4;4;
73631;PMS5003;61924;53.268;-2.458;2023-03-04T03:47:58;4;3;
73631;PMS5003;61924;53.268;-2.458;2023-03-04T03:50:23;5;5;
73631;PMS5003;61924;53.268;-2.458;2023-03-04T03:52:48;4;4;
73631;PMS5003;61924;53.268;-2.458;2023-03-04T03:55:14;3;3;
73631;PMS5003;61924;53.268;-2.458;2023-03-04T03:57:40;3;3;
73631;PMS5003;61924;53.268;-2.458;2023-03-04T04:00:07;4;3;
73631;PMS5003;61924;53.268;-2.458;2023-03-04T04:02:31;4;4;
73631;PMS5003;61924;53.268;-2.458;2023-03-04T04:04:57;5;5;
73631;PMS5003;61924;53.268;-2.458;2023-03-04T04:07:22;3;3;
73631;PMS5003;61924;53.268;-2.458;2023-03-04T04:09:47;3;3;
73631;PMS5003;61924;53.268;-2.458;2023-03-04T04:12:13;5;5;
73631;PMS5003;61924;53.268;-2.458;2023-03-04T04:14:38;4;4;
73631;PMS5003;61924;53.268;-2.458;2023-03-04T04:17:04;3;3;
73631;PMS5003;61924;53.268;-2.458;2023-03-04T04:19:30;2;2;
73631;PMS5003;61924;53.268;-2.458;2023-03-04T04:21:55;5;5;
73631;PMS5003;61924;53.268;-2.458;2023-03-04T04:24:20;3;3;
73631;PMS5003;61924;53.268;-2.458;2023-03-04T04:26:45;4;3;
73631;PMS5003;61924;53.268;-2.458;2023-03-04T04:29:12;3;3;
73631;PMS5003;61924;53.268;-2.458;2023-03-04T04:31:36;3;3;
73631;PMS5003;61924;53.268;-2.458;2023-03-04T04:34:01;3;3;
73631;PMS5003;61924;53.268;-2.458;2023-03-04T04:36:26;4;4;
73631;PMS5003;61924;53.268;-2.458;2023-03-04T04:38:51;54;50;
73631;PMS5003;61924;53.268;-2.458;2023-03-04T04:41:18;113;108;
73631;PMS5003;61924;53.268;-2.458;2023-03-04T04:43:43;106;105;
73631;PMS5003;61924;53.268;-2.458;2023-03-04T04:46:08;96;92;
73631;PMS5003;61924;53.268;-2.458;2023-03-04T04:48:33;77;75;
73631;PMS5003;61924;53.268;-2.458;2023-03-04T04:50:59;68;66;
73631;PMS5003;61924;53.268;-2.458;2023-03-04T04:53:24;68;65;
73631;PMS5003;61924;53.268;-2.458;2023-03-04T04:55:49;67;66;
73631;PMS5003;61924;53.268;-2.458;2023-03-04T04:58:15;61;55;
73631;PMS5003;61924;53.268;-2.458;2023-03-04T05:00:41;55;53;
73631;PMS5003;61924;53.268;-2.458;2023-03-04T05:03:07;58;55;
73631;PMS5003;61924;53.268;-2.458;2023-03-04T05:05:32;54;50;
73631;PMS5003;61924;53.268;-2.458;2023-03-04T05:07:58;52;51;
73631;PMS5003;61924;53.268;-2.458;2023-03-04T05:10:23;52;49;
73631;PMS5003;61924;53.268;-2.458;2023-03-04T05:12:49;50;48;
73631;PMS5003;61924;53.268;-2.458;2023-03-04T05:15:14;53;49;
73631;PMS5003;61924;53.268;-2.458;2023-03-04T05:17:40;43;42;
73631;PMS5003;61924;53.268;-2.458;2023-03-04T05:20:06;40;38;
73631;PMS5003;61924;53.268;-2.458;2023-03-04T05:22:31;45;42;
73631;PMS5003;61924;53.268;-2.458;2023-03-04T05:24:57;45;45;
73631;PMS5003;61924;53.268;-2.458;2023-03-04T05:27:22;49;47;
73631;PMS5003;61924;53.268;-2.458;2023-03-04T05:29:48;32;32;
73631;PMS5003;61924;53.268;-2.458;2023-03-04T05:32:14;38;38;
73631;PMS5003;61924;53.268;-2.458;2023-03-04T05:34:39;35;34;
73631;PMS5003;61924;53.268;-2.458;2023-03-04T05:37:04;35;33;
73631;PMS5003;61924;53.268;-2.458;2023-03-04T05:39:30;33;32;
73631;PMS5003;61924;53.268;-2.458;2023-03-04T05:41:56;34;32;
73631;PMS5003;61924;53.268;-2.458;2023-03-04T05:44:21;34;32;
73631;PMS5003;61924;53.268;-2.458;2023-03-04T05:46:46;31;30;
73631;PMS5003;61924;53.268;-2.458;2023-03-04T05:49:11;31;30;
73631;PMS5003;61924;53.268;-2.458;2023-03-04T05:51:37;31;30;
73631;PMS5003;61924;53.268;-2.458;2023-03-04T05:54:03;26;24;
73631;PMS5003;61924;53.268;-2.458;2023-03-04T05:56:28;25;25;
73631;PMS5003;61924;53.268;-2.458;2023-03-04T05:58:55;26;25;
73631;PMS5003;61924;53.268;-2.458;2023-03-04T06:01:19;23;22;
73631;PMS5003;61924;53.268;-2.458;2023-03-04T06:03:44;20;20;
73631;PMS5003;61924;53.268;-2.458;2023-03-04T06:06:09;24;23;
73631;PMS5003;61924;53.268;-2.458;2023-03-04T06:08:34;25;22;
73631;PMS5003;61924;53.268;-2.458;2023-03-04T06:11:00;19;19;
73631;PMS5003;61924;53.268;-2.458;2023-03-04T06:13:25;20;20;
73631;PMS5003;61924;53.268;-2.458;2023-03-04T06:15:52;23;22;
73631;PMS5003;61924;53.268;-2.458;2023-03-04T06:18:15;19;17;
73631;PMS5003;61924;53.268;-2.458;2023-03-04T06:20:41;21;19;
73631;PMS5003;61924;53.268;-2.458;2023-03-04T06:23:07;18;17;
73631;PMS5003;61924;53.268;-2.458;2023-03-04T06:25:32;19;18;
73631;PMS5003;61924;53.268;-2.458;2023-03-04T06:27:58;18;18;
73631;PMS5003;61924;53.268;-2.458;2023-03-04T06:30:23;16;14;
73631;PMS5003;61924;53.268;-2.458;2023-03-04T06:32:49;20;18;
73631;PMS5003;61924;53.268;-2.458;2023-03-04T06:35:15;18;17;
73631;PMS5003;61924;53.268;-2.458;2023-03-04T06:37:39;17;16;
73631;PMS5003;61924;53.268;-2.458;2023-03-04T06:40:05;17;17;
73631;PMS5003;61924;53.268;-2.458;2023-03-04T06:42:31;17;16;
73631;PMS5003;61924;53.268;-2.458;2023-03-04T06:44:56;16;15;
73631;PMS5003;61924;53.268;-2.458;2023-03-04T06:47:22;13;13;
73631;PMS5003;61924;53.268;-2.458;2023-03-04T06:49:47;17;16;
73631;PMS5003;61924;53.268;-2.458;2023-03-04T06:52:13;13;13;
73631;PMS5003;61924;53.268;-2.458;2023-03-04T06:54:39;17;17;
73631;PMS5003;61924;53.268;-2.458;2023-03-04T06:57:04;12;12;
73631;PMS5003;61924;53.268;-2.458;2023-03-04T06:59:30;12;12;
73631;PMS5003;61924;53.268;-2.458;2023-03-04T07:01:55;13;13;
73631;PMS5003;61924;53.268;-2.458;2023-03-04T07:04:20;13;11;
73631;PMS5003;61924;53.268;-2.458;2023-03-04T07:06:46;12;12;
73631;PMS5003;61924;53.268;-2.458;2023-03-04T07:09:11;9;9;
73631;PMS5003;61924;53.268;-2.458;2023-03-04T07:11:37;11;10;
73631;PMS5003;61924;53.268;-2.458;2023-03-04T07:14:02;13;13;
73631;PMS5003;61924;53.268;-2.458;2023-03-04T07:16:28;11;10;
73631;PMS5003;61924;53.268;-2.458;2023-03-04T07:18:53;12;12;
73631;PMS5003;61924;53.268;-2.458;2023-03-04T07:21:19;8;8;
73631;PMS5003;61924;53.268;-2.458;2023-03-04T07:23:44;8;7;
73631;PMS5003;61924;53.268;-2.458;2023-03-04T07:26:09;10;10;
73631;PMS5003;61924;53.268;-2.458;2023-03-04T07:28:35;12;11;
73631;PMS5003;61924;53.268;-2.458;2023-03-04T07:31:06;11;10;
73631;PMS5003;61924;53.268;-2.458;2023-03-04T07:33:25;8;8;
73631;PMS5003;61924;53.268;-2.458;2023-03-04T07:35:57;11;10;
73631;PMS5003;61924;53.268;-2.458;2023-03-04T07:38:16;10;10;
73631;PMS5003;61924;53.268;-2.458;2023-03-04T07:40:41;8;7;
73631;PMS5003;61924;53.268;-2.458;2023-03-04T07:43:07;9;8;
73631;PMS5003;61924;53.268;-2.458;2023-03-04T07:45:32;8;8;
73631;PMS5003;61924;53.268;-2.458;2023-03-04T07:47:58;8;8;
73631;PMS5003;61924;53.268;-2.458;2023-03-04T07:50:23;7;7;
73631;PMS5003;61924;53.268;-2.458;2023-03-04T07:52:49;11;11;
73631;PMS5003;61924;53.268;-2.458;2023-03-04T07:55:14;7;7;
73631;PMS5003;61924;53.268;-2.458;2023-03-04T07:57:39;9;9;
73631;PMS5003;61924;53.268;-2.458;2023-03-04T08:00:04;8;8;
73631;PMS5003;61924;53.268;-2.458;2023-03-04T08:02:29;8;8;
73631;PMS5003;61924;53.268;-2.458;2023-03-04T08:04:55;9;9;
73631;PMS5003;61924;53.268;-2.458;2023-03-04T08:07:20;8;8;
73631;PMS5003;61924;53.268;-2.458;2023-03-04T08:09:46;9;9;
73631;PMS5003;61924;53.268;-2.458;2023-03-04T08:12:11;8;7;
73631;PMS5003;61924;53.268;-2.458;2023-03-04T08:14:37;9;8;
73631;PMS5003;61924;53.268;-2.458;2023-03-04T08:17:02;10;9;
73631;PMS5003;61924;53.268;-2.458;2023-03-04T08:19:28;8;8;
73631;PMS5003;61924;53.268;-2.458;2023-03-04T08:21:53;8;7;
73631;PMS5003;61924;53.268;-2.458;2023-03-04T08:24:19;8;8;
73631;PMS5003;61924;53.268;-2.458;2023-03-04T08:26:46;9;9;
73631;PMS5003;61924;53.268;-2.458;2023-03-04T08:29:11;8;8;
73631;PMS5003;61924;53.268;-2.458;2023-03-04T08:31:35;7;6;
73631;PMS5003;61924;53.268;-2.458;2023-03-04T08:34:01;7;7;
73631;PMS5003;61924;53.268;-2.458;2023-03-04T08:36:26;8;7;
73631;PMS5003;61924;53.268;-2.458;2023-03-04T08:38:52;8;8;
73631;PMS5003;61924;53.268;-2.458;2023-03-04T08:41:17;7;7;
73631;PMS5003;61924;53.268;-2.458;2023-03-04T08:43:43;6;6;
73631;PMS5003;61924;53.268;-2.458;2023-03-04T08:46:08;9;7;
73631;PMS5003;61924;53.268;-2.458;2023-03-04T08:48:34;8;7;
73631;PMS5003;61924;53.268;-2.458;2023-03-04T08:50:59;7;7;
73631;PMS5003;61924;53.268;-2.458;2023-03-04T08:53:24;6;6;
73631;PMS5003;61924;53.268;-2.458;2023-03-04T08:55:50;7;7;
73631;PMS5003;61924;53.268;-2.458;2023-03-04T08:58:15;7;7;
73631;PMS5003;61924;53.268;-2.458;2023-03-04T09:00:42;7;7;
73631;PMS5003;61924;53.268;-2.458;2023-03-04T09:03:06;6;6;
73631;PMS5003;61924;53.268;-2.458;2023-03-04T09:05:32;6;6;
73631;PMS5003;61924;53.268;-2.458;2023-03-04T09:07:57;6;6;
73631;PMS5003;61924;53.268;-2.458;2023-03-04T09:10:23;7;7;
73631;PMS5003;61924;53.268;-2.458;2023-03-04T09:12:48;7;7;
73631;PMS5003;61924;53.268;-2.458;2023-03-04T09:15:13;7;6;
73631;PMS5003;61924;53.268;-2.458;2023-03-04T09:17:39;7;7;
73631;PMS5003;61924;53.268;-2.458;2023-03-04T09:20:04;6;5;
73631;PMS5003;61924;53.268;-2.458;2023-03-04T09:22:30;7;6;
73631;PMS5003;61924;53.268;-2.458;2023-03-04T09:24:55;6;5;
73631;PMS5003;61924;53.268;-2.458;2023-03-04T09:27:21;6;5;
73631;PMS5003;61924;53.268;-2.458;2023-03-04T09:29:46;5;5;
73631;PMS5003;61924;53.268;-2.458;2023-03-04T09:32:11;7;7;
73631;PMS5003;61924;53.268;-2.458;2023-03-04T09:34:36;6;6;
73631;PMS5003;61924;53.268;-2.458;2023-03-04T09:37:02;5;5;
73631;PMS5003;61924;53.268;-2.458;2023-03-04T09:39:28;4;4;
73631;PMS5003;61924;53.268;-2.458;2023-03-04T09:41:53;5;5;
73631;PMS5003;61924;53.268;-2.458;2023-03-04T09:44:21;6;5;
73631;PMS5003;61924;53.268;-2.458;2023-03-04T09:46:45;6;6;
73631;PMS5003;61924;53.268;-2.458;2023-03-04T09:49:10;5;5;
73631;PMS5003;61924;53.268;-2.458;2023-03-04T09:51:39;5;5;
73631;PMS5003;61924;53.268;-2.458;2023-03-04T09:54:05;5;5;
73631;PMS5003;61924;53.268;-2.458;2023-03-04T09:56:26;6;6;
73631;PMS5003;61924;53.268;-2.458;2023-03-04T09:58:54;5;5;
73631;PMS5003;61924;53.268;-2.458;2023-03-04T10:01:19;7;7;
73631;PMS5003;61924;53.268;-2.458;2023-03-04T10:03:42;6;6;
73631;PMS5003;61924;53.268;-2.458;2023-03-04T10:06:09;6;6;
73631;PMS5003;61924;53.268;-2.458;2023-03-04T10:08:37;5;5;
73631;PMS5003;61924;53.268;-2.458;2023-03-04T10:10:59;6;5;
73631;PMS5003;61924;53.268;-2.458;2023-03-04T10:13:25;6;6;
73631;PMS5003;61924;53.268;-2.458;2023-03-04T10:15:49;4;3;
73631;PMS5003;61924;53.268;-2.458;2023-03-04T10:18:17;4;4;
73631;PMS5003;61924;53.268;-2.458;2023-03-04T10:20:45;4;4;
73631;PMS5003;61924;53.268;-2.458;2023-03-04T10:23:08;6;5;
73631;PMS5003;61924;53.268;-2.458;2023-03-04T10:25:31;5;5;
73631;PMS5003;61924;53.268;-2.458;2023-03-04T10:27:57;6;6;
73631;PMS5003;61924;53.268;-2.458;2023-03-04T10:30:31;6;6;
73631;PMS5003;61924;53.268;-2.458;2023-03-04T10:32:46;5;5;
73631;PMS5003;61924;53.268;-2.458;2023-03-04T10:35:12;4;4;
73631;PMS5003;61924;53.268;-2.458;2023-03-04T10:37:47;6;5;
73631;PMS5003;61924;53.268;-2.458;2023-03-04T10:40:03;5;5;
73631;PMS5003;61924;53.268;-2.458;2023-03-04T10:42:28;6;6;
73631;PMS5003;61924;53.268;-2.458;2023-03-04T10:44:55;7;7;
73631;PMS5003;61924;53.268;-2.458;2023-03-04T10:47:21;5;5;
73631;PMS5003;61924;53.268;-2.458;2023-03-04T10:49:49;4;4;
73631;PMS5003;61924;53.268;-2.458;2023-03-04T10:52:14;4;4;
73631;PMS5003;61924;53.268;-2.458;2023-03-04T10:54:36;3;3;
73631;PMS5003;61924;53.268;-2.458;2023-03-04T10:57:01;5;5;
73631;PMS5003;61924;53.268;-2.458;2023-03-04T10:59:34;4;4;
73631;PMS5003;61924;53.268;-2.458;2023-03-04T11:01:52;5;5;
73631;PMS5003;61924;53.268;-2.458;2023-03-04T11:04:16;5;5;
73631;PMS5003;61924;53.268;-2.458;2023-03-04T11:06:41;4;4;
73631;PMS5003;61924;53.268;-2.458;2023-03-04T11:09:16;6;5;
73631;PMS5003;61924;53.268;-2.458;2023-03-04T11:11:37;5;5;
73631;PMS5003;61924;53.268;-2.458;2023-03-04T11:13:58;5;5;
73631;PMS5003;61924;53.268;-2.458;2023-03-04T11:16:24;7;6;
73631;PMS5003;61924;53.268;-2.458;2023-03-04T11:18:49;5;4;
73631;PMS5003;61924;53.268;-2.458;2023-03-04T11:21:14;1;1;
73631;PMS5003;61924;53.268;-2.458;2023-03-04T11:23:39;3;3;
73631;PMS5003;61924;53.268;-2.458;2023-03-04T11:26:05;5;5;
73631;PMS5003;61924;53.268;-2.458;2023-03-04T11:28:35;2;2;
73631;PMS5003;61924;53.268;-2.458;2023-03-04T11:30:56;4;4;
73631;PMS5003;61924;53.268;-2.458;2023-03-04T11:33:23;5;4;
73631;PMS5003;61924;53.268;-2.458;2023-03-04T11:35:49;5;4;
73631;PMS5003;61924;53.268;-2.458;2023-03-04T11:38:14;5;5;
73631;PMS5003;61924;53.268;-2.458;2023-03-04T11:40:38;2;2;
73631;PMS5003;61924;53.268;-2.458;2023-03-04T11:43:04;4;4;
73631;PMS5003;61924;53.268;-2.458;2023-03-04T11:45:30;3;3;
73631;PMS5003;61924;53.268;-2.458;2023-03-04T11:47:56;4;4;
73631;PMS5003;61924;53.268;-2.458;2023-03-04T11:50:22;3;3;
73631;PMS5003;61924;53.268;-2.458;2023-03-04T11:52:49;4;4;
73631;PMS5003;61924;53.268;-2.458;2023-03-04T11:55:17;5;5;
73631;PMS5003;61924;53.268;-2.458;2023-03-04T11:57:37;5;4;
73631;PMS5003;61924;53.268;-2.458;2023-03-04T12:00:03;2;2;
73631;PMS5003;61924;53.268;-2.458;2023-03-04T12:02:28;5;5;
73631;PMS5003;61924;53.268;-2.458;2023-03-04T12:05:23;3;2;
73631;PMS5003;61924;53.268;-2.458;2023-03-04T12:08:07;4;4;
73631;PMS5003;61924;53.268;-2.458;2023-03-04T12:10:15;4;4;
73631;PMS5003;61924;53.268;-2.458;2023-03-04T12:12:43;3;3;
73631;PMS5003;61924;53.268;-2.458;2023-03-04T12:15:07;3;3;
73631;PMS5003;61924;53.268;-2.458;2023-03-04T12:17:33;3;2;
73631;PMS5003;61924;53.268;-2.458;2023-03-04T12:19:59;3;3;
73631;PMS5003;61924;53.268;-2.458;2023-03-04T12:22:24;4;3;
73631;PMS5003;61924;53.268;-2.458;2023-03-04T12:24:49;4;4;
73631;PMS5003;61924;53.268;-2.458;2023-03-04T12:27:15;4;4;
73631;PMS5003;61924;53.268;-2.458;2023-03-04T12:29:38;4;3;
73631;PMS5003;61924;53.268;-2.458;2023-03-04T12:32:02;4;4;
73631;PMS5003;61924;53.268;-2.458;2023-03-04T12:34:29;3;3;
73631;PMS5003;61924;53.268;-2.458;2023-03-04T12:36:54;4;4;
73631;PMS5003;61924;53.268;-2.458;2023-03-04T12:39:21;3;3;
73631;PMS5003;61924;53.268;-2.458;2023-03-04T12:41:44;5;4;
73631;PMS5003;61924;53.268;-2.458;2023-03-04T12:44:12;3;3;
73631;PMS5003;61924;53.268;-2.458;2023-03-04T12:46:36;4;4;
73631;PMS5003;61924;53.268;-2.458;2023-03-04T12:49:36;2;2;
73631;PMS5003;61924;53.268;-2.458;2023-03-04T12:51:28;4;4;
73631;PMS5003;61924;53.268;-2.458;2023-03-04T12:53:53;2;2;
73631;PMS5003;61924;53.268;-2.458;2023-03-04T12:56:18;4;4;
73631;PMS5003;61924;53.268;-2.458;2023-03-04T12:58:41;3;3;
73631;PMS5003;61924;53.268;-2.458;2023-03-04T13:01:08;2;2;
73631;PMS5003;61924;53.268;-2.458;2023-03-04T13:03:35;5;5;
73631;PMS5003;61924;53.268;-2.458;2023-03-04T13:06:00;1;1;
73631;PMS5003;61924;53.268;-2.458;2023-03-04T13:08:24;4;4;
73631;PMS5003;61924;53.268;-2.458;2023-03-04T13:10:48;2;2;
73631;PMS5003;61924;53.268;-2.458;2023-03-04T13:13:46;3;3;
73631;PMS5003;61924;53.268;-2.458;2023-03-04T13:15:39;2;2;
73631;PMS5003;61924;53.268;-2.458;2023-03-04T13:18:29;4;4;
73631;PMS5003;61924;53.268;-2.458;2023-03-04T13:20:33;2;2;
73631;PMS5003;61924;53.268;-2.458;2023-03-04T13:22:56;1;1;
73631;PMS5003;61924;53.268;-2.458;2023-03-04T13:25:38;3;3;
73631;PMS5003;61924;53.268;-2.458;2023-03-04T13:27:47;2;2;
73631;PMS5003;61924;53.268;-2.458;2023-03-04T13:30:38;4;4;
73631;PMS5003;61924;53.268;-2.458;2023-03-04T13:32:37;2;2;
73631;PMS5003;61924;53.268;-2.458;2023-03-04T13:35:22;3;3;
73631;PMS5003;61924;53.268;-2.458;2023-03-04T13:37:29;2;2;
73631;PMS5003;61924;53.268;-2.458;2023-03-04T13:40:22;3;3;
73631;PMS5003;61924;53.268;-2.458;2023-03-04T13:42:52;3;2;
73631;PMS5003;61924;53.268;-2.458;2023-03-04T13:44:56;3;3;
73631;PMS5003;61924;53.268;-2.458;2023-03-04T13:47:13;4;3;
73631;PMS5003;61924;53.268;-2.458;2023-03-04T13:49:35;2;2;
73631;PMS5003;61924;53.268;-2.458;2023-03-04T13:52:26;4;4;
73631;PMS5003;61924;53.268;-2.458;2023-03-04T13:54:26;3;3;
73631;PMS5003;61924;53.268;-2.458;2023-03-04T13:57:09;2;2;
73631;PMS5003;61924;53.268;-2.458;2023-03-04T13:59:21;3;3;
73631;PMS5003;61924;53.268;-2.458;2023-03-04T14:01:53;2;2;
73631;PMS5003;61924;53.268;-2.458;2023-03-04T14:04:09;3;3;
73631;PMS5003;61924;53.268;-2.458;2023-03-04T14:06:32;2;2;
73631;PMS5003;61924;53.268;-2.458;2023-03-04T14:08:58;3;3;
73631;PMS5003;61924;53.268;-2.458;2023-03-04T14:11:26;3;3;
73631;PMS5003;61924;53.268;-2.458;2023-03-04T14:13:49;3;3;
73631;PMS5003;61924;53.268;-2.458;2023-03-04T14:16:18;3;3;
73631;PMS5003;61924;53.268;-2.458;2023-03-04T14:18:40;3;3;
73631;PMS5003;61924;53.268;-2.458;2023-03-04T14:21:05;3;2;
73631;PMS5003;61924;53.268;-2.458;2023-03-04T14:23:32;3;3;
73631;PMS5003;61924;53.268;-2.458;2023-03-04T14:26:05;3;3;
73631;PMS5003;61924;53.268;-2.458;2023-03-04T14:28:22;2;2;
73631;PMS5003;61924;53.268;-2.458;2023-03-04T14:30:50;3;3;
73631;PMS5003;61924;53.268;-2.458;2023-03-04T14:33:15;3;3;
73631;PMS5003;61924;53.268;-2.458;2023-03-04T14:35:39;3;3;
73631;PMS5003;61924;53.268;-2.458;2023-03-04T14:38:05;2;2;
73631;PMS5003;61924;53.268;-2.458;2023-03-04T14:40:32;3;3;
73631;PMS5003;61924;53.268;-2.458;2023-03-04T14:42:57;2;2;
73631;PMS5003;61924;53.268;-2.458;2023-03-04T14:45:21;3;3;
73631;PMS5003;61924;53.268;-2.458;2023-03-04T14:47:46;3;3;
73631;PMS5003;61924;53.268;-2.458;2023-03-04T14:50:13;2;2;
73631;PMS5003;61924;53.268;-2.458;2023-03-04T14:52:38;3;3;
73631;PMS5003;61924;53.268;-2.458;2023-03-04T14:55:15;3;3;
73631;PMS5003;61924;53.268;-2.458;2023-03-04T14:57:29;3;3;
73631;PMS5003;61924;53.268;-2.458;2023-03-04T14:59:54;3;3;
73631;PMS5003;61924;53.268;-2.458;2023-03-04T15:02:22;2;2;
73631;PMS5003;61924;53.268;-2.458;2023-03-04T15:04:45;2;2;
73631;PMS5003;61924;53.268;-2.458;2023-03-04T15:07:11;1;1;
73631;PMS5003;61924;53.268;-2.458;2023-03-04T15:09:35;3;3;
73631;PMS5003;61924;53.268;-2.458;2023-03-04T15:12:01;1;1;
73631;PMS5003;61924;53.268;-2.458;2023-03-04T15:14:42;3;3;
73631;PMS5003;61924;53.268;-2.458;2023-03-04T15:16:51;1;1;
73631;PMS5003;61924;53.268;-2.458;2023-03-04T15:19:23;2;2;
73631;PMS5003;61924;53.268;-2.458;2023-03-04T15:21:41;3;3;
73631;PMS5003;61924;53.268;-2.458;2023-03-04T15:24:08;3;3;
73631;PMS5003;61924;53.268;-2.458;2023-03-04T15:26:33;3;2;
73631;PMS5003;61924;53.268;-2.458;2023-03-04T15:28:58;4;4;
73631;PMS5003;61924;53.268;-2.458;2023-03-04T15:31:23;3;3;
73631;PMS5003;61924;53.268;-2.458;2023-03-04T15:33:49;2;2;
73631;PMS5003;61924;53.268;-2.458;2023-03-04T15:36:15;2;2;
73631;PMS5003;61924;53.268;-2.458;2023-03-04T15:38:40;2;2;
73631;PMS5003;61924;53.268;-2.458;2023-03-04T15:41:07;3;3;
73631;PMS5003;61924;53.268;-2.458;2023-03-04T15:43:30;3;3;
73631;PMS5003;61924;53.268;-2.458;2023-03-04T15:45:56;3;3;
73631;PMS5003;61924;53.268;-2.458;2023-03-04T15:48:21;3;3;
73631;PMS5003;61924;53.268;-2.458;2023-03-04T15:50:48;3;3;
73631;PMS5003;61924;53.268;-2.458;2023-03-04T15:53:14;0;0;
73631;PMS5003;61924;53.268;-2.458;2023-03-04T15:55:38;3;3;
73631;PMS5003;61924;53.268;-2.458;2023-03-04T15:58:04;1;1;
73631;PMS5003;61924;53.268;-2.458;2023-03-04T16:00:29;3;2;
73631;PMS5003;61924;53.268;-2.458;2023-03-04T16:02:54;3;2;
73631;PMS5003;61924;53.268;-2.458;2023-03-04T16:05:20;2;2;
73631;PMS5003;61924;53.268;-2.458;2023-03-04T16:07:46;3;3;
73631;PMS5003;61924;53.268;-2.458;2023-03-04T16:10:12;2;2;